Time;durP1;ratioP1;P1;durP2;ratioP2;P2;SDS_P1;SDS_P2;PMS_P1;PMS_P2;Temp;Humidity;BMP_temperature;BMP_pressure;BME280_temperature;BME280_humidity;BME280_pressure;Samples;Min_cycle;Max_cycle;Signal;HPM_P1;HPM_P2
2021/05/27 00:00:46;;;;;;;1.23;1.13;;;9.90;98.90;;;;;;5090292;28;20186;-88
2021/05/27 00:03:21;;;;;;;1.50;1.20;;;9.90;99.10;;;;;;5090125;28;20308;-89
2021/05/27 00:09:10;;;;;;;1.85;1.23;;;10.10;98.20;;;;;;5049387;28;20256;-89
2021/05/27 00:11:37;;;;;;;1.00;0.90;;;10.20;97.60;;;;;;5063529;28;20190;-90
2021/05/27 00:14:04;;;;;;;1.27;1.00;;;10.20;97.20;;;;;;5069248;28;20289;-88
2021/05/27 00:16:31;;;;;;;1.73;1.20;;;10.20;97.00;;;;;;5069761;28;20277;-91
2021/05/27 00:18:57;;;;;;;3.72;1.20;;;10.20;96.90;;;;;;5057485;28;20281;-88
2021/05/27 00:21:24;;;;;;;2.65;1.10;;;10.10;96.80;;;;;;5049192;28;20199;-88
2021/05/27 00:23:51;;;;;;;1.15;0.90;;;10.10;97.10;;;;;;5049594;28;20527;-88
2021/05/27 00:26:52;;;;;;;0.75;0.75;;;10.10;97.00;;;;;;5049885;28;20194;-89
2021/05/27 00:29:19;;;;;;;2.08;1.20;;;10.20;96.70;;;;;;5048483;28;20233;-89
2021/05/27 00:31:45;;;;;;;1.40;1.10;;;10.10;96.40;;;;;;5067212;28;20206;-89
2021/05/27 00:34:11;;;;;;;1.48;1.05;;;10.10;96.50;;;;;;5068437;28;20226;-88
2021/05/27 00:36:40;;;;;;;1.88;1.20;;;10.10;96.80;;;;;;5068068;28;20289;-89
2021/05/27 00:39:06;;;;;;;2.10;0.90;;;10.10;96.80;;;;;;5069847;28;20229;-88
2021/05/27 00:41:32;;;;;;;1.20;1.10;;;10.10;96.80;;;;;;5068528;28;20288;-88
2021/05/27 00:44:00;;;;;;;1.50;1.13;;;10.00;96.70;;;;;;5067725;28;20291;-88
2021/05/27 00:46:26;;;;;;;1.10;1.00;;;10.00;96.60;;;;;;5048004;28;20210;-88
2021/05/27 00:48:59;;;;;;;1.10;1.00;;;10.00;96.70;;;;;;5060554;28;20225;-88
2021/05/27 00:51:27;;;;;;;1.15;1.00;;;10.00;96.80;;;;;;5068214;28;20202;-89
2021/05/27 00:53:53;;;;;;;2.08;1.15;;;9.90;97.30;;;;;;5067973;28;20242;-88
2021/05/27 00:56:21;;;;;;;1.42;0.80;;;9.90;97.80;;;;;;5069072;28;20237;-88
2021/05/27 00:58:48;;;;;;;1.08;0.98;;;9.90;97.90;;;;;;5070497;28;20202;-88
2021/05/27 01:01:53;;;;;;;1.30;1.10;;;9.90;97.90;;;;;;5068504;28;20253;-88
2021/05/27 01:04:21;;;;;;;0.90;0.90;;;9.80;98.00;;;;;;5066903;28;20217;-88
2021/05/27 01:06:47;;;;;;;0.88;0.88;;;9.70;98.10;;;;;;5062177;28;20198;-88
2021/05/27 01:09:15;;;;;;;2.17;1.10;;;9.80;97.80;;;;;;5063285;28;20231;-89
2021/05/27 01:11:41;;;;;;;1.17;1.08;;;9.80;97.20;;;;;;5061563;28;20205;-88
2021/05/27 01:14:12;;;;;;;1.10;1.00;;;9.90;97.20;;;;;;5062183;28;20308;-88
2021/05/27 01:16:39;;;;;;;1.63;1.10;;;9.80;97.30;;;;;;5067684;28;20240;-89
2021/05/27 01:19:05;;;;;;;1.50;1.00;;;9.80;97.50;;;;;;5068516;28;20708;-88
2021/05/27 01:21:34;;;;;;;3.00;1.40;;;9.80;97.60;;;;;;5066889;28;20222;-88
2021/05/27 01:24:01;;;;;;;1.60;1.20;;;9.80;97.70;;;;;;5070727;28;20236;-88
2021/05/27 01:26:27;;;;;;;2.67;1.00;;;9.80;97.60;;;;;;5070967;28;20285;-88
2021/05/27 01:28:54;;;;;;;1.58;1.05;;;9.70;97.60;;;;;;5066632;28;20204;-88
2021/05/27 01:31:20;;;;;;;1.50;1.00;;;9.60;97.80;;;;;;5063925;28;20194;-88
2021/05/27 01:33:52;;;;;;;1.20;1.05;;;9.60;98.20;;;;;;5063489;28;20233;-89
2021/05/27 01:36:49;;;;;;;1.40;1.27;;;9.60;98.60;;;;;;5066102;28;20221;-89
2021/05/27 01:39:17;;;;;;;1.60;1.13;;;9.60;98.60;;;;;;5062500;28;20214;-90
2021/05/27 01:41:43;;;;;;;1.88;1.08;;;9.60;98.90;;;;;;5070906;28;20202;-88
2021/05/27 01:44:10;;;;;;;1.35;1.13;;;9.60;98.80;;;;;;5071177;28;20249;-88
2021/05/27 01:46:36;;;;;;;0.80;0.80;;;9.60;98.80;;;;;;5070048;28;20220;-89
2021/05/27 01:49:03;;;;;;;1.13;1.00;;;9.50;99.10;;;;;;5068699;28;20237;-89
2021/05/27 01:51:29;;;;;;;1.10;1.00;;;9.50;99.30;;;;;;5056994;28;20212;-88
2021/05/27 02:01:38;;;;;;;1.50;1.00;;;9.60;98.90;;;;;;5049261;28;20222;-89
2021/05/27 02:04:05;;;;;;;1.92;1.00;;;9.60;99.10;;;;;;5053199;28;20199;-89
2021/05/27 02:06:38;;;;;;;2.15;0.93;;;9.50;99.10;;;;;;5049473;28;20195;-89
2021/05/27 02:09:09;;;;;;;2.08;1.13;;;9.50;99.30;;;;;;5049521;28;20222;-89
2021/05/27 02:11:36;;;;;;;1.98;1.75;;;9.50;99.60;;;;;;5036573;28;20198;-89
2021/05/27 02:14:04;;;;;;;2.45;1.05;;;9.50;99.80;;;;;;5049149;28;20264;-89
2021/05/27 02:16:31;;;;;;;2.08;1.13;;;9.50;99.90;;;;;;5050259;28;20223;-89
2021/05/27 02:18:58;;;;;;;1.08;0.90;;;9.40;99.90;;;;;;5050755;28;20254;-89
2021/05/27 02:21:39;;;;;;;1.10;1.00;;;9.40;99.90;;;;;;5050783;28;20205;-89
2021/05/27 02:24:52;;;;;;;0.90;0.90;;;9.40;99.90;;;;;;5049900;28;20228;-89
2021/05/27 02:27:19;;;;;;;1.27;0.90;;;9.50;99.90;;;;;;5050145;28;20248;-89
2021/05/27 02:29:45;;;;;;;1.17;1.08;;;9.60;99.90;;;;;;5050236;28;20206;-89
2021/05/27 02:32:11;;;;;;;1.58;0.90;;;9.60;99.90;;;;;;5049910;28;20209;-88
2021/05/27 02:34:39;;;;;;;1.30;1.20;;;9.60;99.70;;;;;;5049424;28;20213;-88
2021/05/27 02:37:05;;;;;;;2.83;1.50;;;9.60;99.80;;;;;;5054630;28;20226;-88
2021/05/27 02:39:32;;;;;;;1.30;1.10;;;9.60;99.90;;;;;;5052044;28;20225;-88
2021/05/27 02:41:59;;;;;;;1.63;1.30;;;9.50;99.90;;;;;;5049619;28;20258;-89
2021/05/27 02:44:25;;;;;;;1.27;1.15;;;9.50;99.90;;;;;;5049845;28;20206;-88
2021/05/27 02:46:52;;;;;;;2.00;1.05;;;9.60;99.90;;;;;;5049400;28;20199;-90
2021/05/27 02:49:18;;;;;;;1.30;1.20;;;9.60;99.90;;;;;;5050563;28;20221;-88
2021/05/27 02:51:47;;;;;;;1.10;1.00;;;9.60;99.90;;;;;;5050297;28;20222;-89
2021/05/27 02:54:13;;;;;;;1.27;1.08;;;9.60;99.60;;;;;;5060707;28;20592;-89
2021/05/27 02:56:39;;;;;;;1.45;1.00;;;9.60;99.60;;;;;;5069752;28;20289;-89
2021/05/27 02:59:06;;;;;;;1.92;1.27;;;9.50;99.80;;;;;;5069660;28;20237;-89
2021/05/27 03:01:32;;;;;;;1.25;1.15;;;9.60;99.60;;;;;;5069949;28;20216;-88
2021/05/27 03:03:59;;;;;;;0.90;0.90;;;9.60;99.50;;;;;;5052553;28;20729;-88
2021/05/27 03:06:25;;;;;;;1.58;1.30;;;9.60;99.40;;;;;;5060422;28;20229;-89
2021/05/27 03:08:53;;;;;;;1.70;1.40;;;9.60;99.30;;;;;;5067137;28;20202;-89
2021/05/27 03:11:19;;;;;;;1.50;1.40;;;9.60;99.10;;;;;;5068427;28;20221;-90
2021/05/27 03:13:45;;;;;;;1.60;1.15;;;9.60;98.80;;;;;;5067933;28;20264;-89
2021/05/27 03:16:12;;;;;;;1.23;1.10;;;9.60;98.60;;;;;;5068362;28;20222;-89
2021/05/27 03:18:38;;;;;;;1.30;1.00;;;9.60;98.70;;;;;;5053569;28;20234;-91
2021/05/27 03:21:05;;;;;;;1.98;1.27;;;9.60;98.60;;;;;;5053419;28;20198;-89
2021/05/27 03:23:32;;;;;;;1.40;1.30;;;9.60;98.60;;;;;;5068210;28;20694;-89
2021/05/27 03:25:59;;;;;;;2.03;1.30;;;9.50;98.90;;;;;;5067956;28;20198;-88
2021/05/27 03:28:26;;;;;;;1.52;1.30;;;9.40;99.40;;;;;;5064820;28;20214;-89
2021/05/27 03:30:52;;;;;;;1.75;1.20;;;9.50;99.30;;;;;;5051922;28;20199;-90
2021/05/27 03:33:46;;;;;;;2.95;0.90;;;9.50;98.90;;;;;;5059438;28;20229;-88
2021/05/27 03:36:12;;;;;;;1.58;1.00;;;9.40;98.90;;;;;;5068051;28;20707;-88
2021/05/27 03:38:39;;;;;;;1.70;1.08;;;9.40;99.00;;;;;;5067052;28;20241;-89
2021/05/27 03:41:08;;;;;;;1.20;1.10;;;9.40;98.90;;;;;;5068304;28;20256;-89
2021/05/27 03:47:12;;;;;;;1.20;1.13;;;9.30;99.10;;;;;;5067746;28;20237;-89
2021/05/27 03:49:39;;;;;;;1.63;1.08;;;9.40;98.90;;;;;;5067515;28;20198;-88
2021/05/27 03:52:05;;;;;;;2.30;1.30;;;9.30;98.80;;;;;;5067325;28;20194;-89
2021/05/27 03:54:33;;;;;;;3.03;1.15;;;9.30;99.00;;;;;;5067430;28;20281;-89
2021/05/27 03:57:15;;;;;;;3.13;1.23;;;9.30;98.80;;;;;;5059540;28;20268;-89
2021/05/27 04:02:27;;;;;;;2.53;1.20;;;9.30;99.60;;;;;;5047340;28;20257;-88
2021/05/27 04:07:49;;;;;;;1.50;1.30;;;9.40;99.10;;;;;;5016597;28;20269;-90
2021/05/27 04:10:15;;;;;;;1.33;1.10;;;9.40;98.90;;;;;;5057335;28;20210;-89
2021/05/27 04:12:48;;;;;;;1.05;1.00;;;9.30;99.10;;;;;;5057846;28;20554;-89
2021/05/27 04:15:20;;;;;;;1.63;1.30;;;9.30;99.50;;;;;;5063818;28;20281;-89
2021/05/27 04:17:53;;;;;;;1.42;1.20;;;9.40;99.40;;;;;;5067027;28;20351;-89
2021/05/27 04:20:20;;;;;;;2.10;1.10;;;9.40;99.30;;;;;;5067066;28;20229;-90
2021/05/27 04:22:47;;;;;;;1.02;1.02;;;9.50;99.30;;;;;;5049615;28;20203;-89
2021/05/27 04:25:15;;;;;;;1.23;1.13;;;9.50;99.00;;;;;;5047706;28;20202;-89
2021/05/27 04:27:43;;;;;;;1.38;1.13;;;9.50;98.80;;;;;;5064942;28;20687;-89
2021/05/27 04:30:14;;;;;;;5.82;2.40;;;9.60;98.70;;;;;;5067281;28;20206;-89
2021/05/27 04:32:58;;;;;;;1.45;1.10;;;9.60;98.60;;;;;;5065926;28;20252;-89
2021/05/27 04:35:35;;;;;;;1.38;1.27;;;9.50;98.60;;;;;;5065779;28;20186;-91
2021/05/27 04:38:05;;;;;;;1.33;1.20;;;9.60;99.00;;;;;;5047178;28;20233;-89
2021/05/27 04:40:31;;;;;;;1.10;1.02;;;9.60;99.40;;;;;;5063907;28;20201;-89
2021/05/27 04:42:59;;;;;;;1.25;1.10;;;9.70;99.10;;;;;;5068407;28;20229;-89
2021/05/27 04:45:25;;;;;;;1.88;1.10;;;9.80;98.70;;;;;;5068878;28;20204;-88
2021/05/27 04:47:54;;;;;;;1.20;1.10;;;9.90;98.30;;;;;;5069535;28;20233;-89
2021/05/27 04:50:22;;;;;;;3.97;1.10;;;9.90;98.00;;;;;;5069065;28;20229;-89
2021/05/27 04:52:49;;;;;;;1.20;1.10;;;9.80;98.10;;;;;;5069114;28;20229;-89
2021/05/27 09:33:09;;;;;;;4.18;1.65;;;14.00;70.70;;;;;;5052670;28;20225;-90
2021/05/27 09:35:36;;;;;;;3.90;1.58;;;14.20;67.30;;;;;;5054120;28;20640;-91
2021/05/27 09:38:03;;;;;;;3.88;1.55;;;14.30;64.60;;;;;;5050496;28;20661;-90
2021/05/27 09:40:34;;;;;;;1.65;1.42;;;14.30;61.50;;;;;;5052465;28;20202;-91
2021/05/27 09:43:01;;;;;;;4.20;1.38;;;14.40;59.40;;;;;;5052782;28;20245;-92
2021/05/27 09:45:30;;;;;;;4.82;1.33;;;14.50;57.00;;;;;;5056650;28;20206;-91
2021/05/27 09:47:57;;;;;;;3.92;1.73;;;15.10;55.60;;;;;;5058051;28;20229;-90
2021/05/27 09:50:41;;;;;;;3.42;1.30;;;15.50;51.80;;;;;;5047104;28;20200;-89
2021/05/27 09:53:13;;;;;;;2.42;1.27;;;15.60;49.60;;;;;;5057658;28;20225;-88
2021/05/27 09:55:40;;;;;;;2.00;1.50;;;16.20;48.20;;;;;;5055727;28;20198;-88
2021/05/27 09:58:09;;;;;;;4.28;1.48;;;16.00;46.80;;;;;;5069510;28;20237;-88
2021/05/27 10:00:36;;;;;;;4.28;1.10;;;15.50;46.10;;;;;;5063093;28;20206;-90
2021/05/27 10:03:28;;;;;;;5.22;1.48;;;15.00;49.60;;;;;;5058447;28;20229;-90
2021/05/27 10:06:11;;;;;;;3.88;1.48;;;14.90;51.30;;;;;;5057662;28;20190;-91
2021/05/27 10:08:54;;;;;;;2.53;1.23;;;14.60;51.00;;;;;;5046125;28;20219;-90
2021/05/27 10:11:23;;;;;;;1.65;1.20;;;14.30;52.90;;;;;;5045759;28;20194;-90
2021/05/27 10:13:50;;;;;;;1.77;1.25;;;14.10;54.80;;;;;;5060807;28;20237;-90
2021/05/27 10:16:18;;;;;;;2.08;1.25;;;13.80;57.10;;;;;;5064569;28;20392;-90
2021/05/27 10:18:45;;;;;;;2.90;1.40;;;13.50;59.80;;;;;;5048233;28;20250;-90
2021/05/27 10:21:13;;;;;;;2.30;1.70;;;13.30;65.10;;;;;;5050147;28;20594;-90
2021/05/27 10:23:39;;;;;;;2.00;1.38;;;13.20;67.20;;;;;;5050064;28;20256;-90
2021/05/27 10:26:07;;;;;;;2.08;1.33;;;13.30;67.80;;;;;;5050918;28;20229;-90
2021/05/27 10:39:08;;;;;;;2.50;1.45;;;13.00;74.30;;;;;;5052903;28;20234;-90
2021/05/27 10:41:55;;;;;;;3.42;1.45;;;12.80;75.70;;;;;;5052971;28;20222;-90
2021/05/27 10:57:47;;;;;;;1.50;1.40;;;14.00;71.30;;;;;;5136628;23;20226;-92
2021/05/27 11:00:46;;;;;;;3.05;1.40;;;14.70;63.40;;;;;;5035254;28;20191;-88
2021/05/27 11:03:48;;;;;;;2.67;1.20;;;15.60;69.60;;;;;;5028469;28;20257;-89
2021/05/27 11:06:22;;;;;;;1.02;0.98;;;16.70;52.90;;;;;;5000921;28;20200;-89
2021/05/27 11:09:09;;;;;;;0.93;0.93;;;16.60;51.30;;;;;;5005083;28;20228;-90
2021/05/27 11:11:37;;;;;;;2.88;1.13;;;16.90;46.00;;;;;;5032332;28;20212;-90
2021/05/27 11:14:19;;;;;;;1.75;1.05;;;16.80;48.20;;;;;;5046041;28;20302;-89
2021/05/27 11:17:18;;;;;;;3.13;1.33;;;16.90;48.40;;;;;;5046556;28;20238;-89
2021/05/27 11:19:49;;;;;;;2.25;1.10;;;16.80;43.50;;;;;;5041682;28;20222;-89
2021/05/27 11:22:45;;;;;;;2.30;1.17;;;16.60;46.80;;;;;;5045041;28;20311;-89
2021/05/27 11:25:40;;;;;;;12.07;2.80;;;16.20;47.50;;;;;;5045742;28;20195;-91
2021/05/27 11:28:27;;;;;;;6.60;1.30;;;15.90;52.20;;;;;;5037623;28;20241;-91
2021/05/27 11:30:59;;;;;;;2.60;1.30;;;15.70;50.80;;;;;;5037917;28;20203;-90
2021/05/27 11:33:39;;;;;;;1.83;1.50;;;15.50;51.80;;;;;;5038523;28;20234;-89
2021/05/27 11:36:25;;;;;;;1.77;1.10;;;15.00;51.40;;;;;;5034406;28;20215;-89
2021/05/27 11:38:52;;;;;;;2.95;1.27;;;14.70;51.10;;;;;;5032714;28;20637;-91
2021/05/27 11:41:20;;;;;;;1.70;1.10;;;14.70;51.70;;;;;;5034637;28;20195;-90
2021/05/27 11:43:49;;;;;;;1.05;1.00;;;14.30;55.70;;;;;;5035012;28;20253;-90
2021/05/27 11:46:18;;;;;;;1.05;0.98;;;14.20;53.90;;;;;;5030706;28;20195;-88
2021/05/27 11:48:57;;;;;;;1.05;1.00;;;14.10;56.20;;;;;;5044181;28;20222;-88
2021/05/27 11:51:30;;;;;;;4.07;1.20;;;14.20;56.60;;;;;;5046407;28;20195;-88
2021/05/27 11:53:58;;;;;;;2.40;1.40;;;14.20;56.20;;;;;;5052303;28;20229;-88
2021/05/27 11:56:47;;;;;;;1.77;1.40;;;14.50;55.30;;;;;;5058939;28;20217;-92
2021/05/27 11:59:21;;;;;;;2.78;1.27;;;14.80;56.40;;;;;;5051795;28;20687;-90
2021/05/27 12:01:52;;;;;;;3.70;1.60;;;14.80;51.20;;;;;;5054629;28;20202;-91
2021/05/27 12:04:20;;;;;;;1.30;1.20;;;14.90;53.20;;;;;;5047717;28;20316;-91
2021/05/27 12:06:52;;;;;;;1.40;1.00;;;15.20;51.70;;;;;;5034832;28;20210;-91
2021/05/27 12:09:27;;;;;;;6.03;1.23;;;15.50;51.80;;;;;;5044467;28;20225;-91
2021/05/27 12:11:53;;;;;;;2.35;1.05;;;15.80;52.10;;;;;;5045143;28;20619;-91
2021/05/27 12:14:20;;;;;;;4.88;1.25;;;15.60;51.90;;;;;;5043347;28;20224;-91
2021/05/27 12:16:46;;;;;;;1.58;1.08;;;15.50;51.90;;;;;;5056447;28;20723;-88
2021/05/27 12:19:14;;;;;;;2.70;1.02;;;15.60;50.90;;;;;;5062022;28;20223;-88
2021/05/27 12:21:55;;;;;;;1.00;0.95;;;15.80;45.30;;;;;;5057054;28;20193;-90
2021/05/27 12:24:24;;;;;;;2.70;1.08;;;15.90;45.70;;;;;;5041052;28;20270;-91
2021/05/27 12:26:50;;;;;;;1.65;1.38;;;15.90;47.40;;;;;;5039867;28;20198;-90
2021/05/27 12:29:17;;;;;;;4.68;1.30;;;15.70;48.30;;;;;;5046926;28;20234;-90
2021/05/27 12:31:45;;;;;;;2.38;1.27;;;15.40;50.70;;;;;;5048283;28;20202;-91
2021/05/27 12:34:14;;;;;;;1.95;1.10;;;15.40;51.80;;;;;;5049103;28;20257;-91
2021/05/27 12:36:58;;;;;;;1.98;1.30;;;15.40;51.80;;;;;;5052011;28;20229;-91
2021/05/27 12:39:34;;;;;;;0.80;0.80;;;15.50;51.80;;;;;;5035030;28;20653;-92
2021/05/27 12:42:02;;;;;;;2.13;1.27;;;15.80;52.10;;;;;;5045273;28;20348;-91
2021/05/27 12:44:42;;;;;;;2.65;1.20;;;16.00;52.30;;;;;;5036209;28;20197;-90
2021/05/27 12:47:19;;;;;;;1.98;1.13;;;16.00;48.70;;;;;;5040864;28;20202;-91
2021/05/27 12:49:48;;;;;;;1.00;0.90;;;16.10;47.50;;;;;;5050051;28;20209;-90
2021/05/27 12:52:39;;;;;;;6.07;1.38;;;16.10;44.70;;;;;;5051105;28;20198;-90
2021/05/27 12:55:08;;;;;;;1.10;1.00;;;16.00;45.00;;;;;;5036278;28;20222;-90
2021/05/27 12:57:50;;;;;;;3.60;1.00;;;16.40;44.70;;;;;;5033372;28;20258;-91
2021/05/27 13:00:17;;;;;;;1.70;1.00;;;16.50;42.20;;;;;;5036233;28;20744;-90
2021/05/27 13:02:44;;;;;;;1.88;1.02;;;16.30;39.70;;;;;;5042285;28;20748;-90
2021/05/27 13:05:15;;;;;;;5.28;1.30;;;16.50;39.40;;;;;;5054281;28;20224;-90
2021/05/27 13:07:55;;;;;;;2.20;1.10;;;16.40;44.80;;;;;;5054261;28;20636;-90
2021/05/27 13:10:29;;;;;;;1.35;0.95;;;16.30;40.10;;;;;;5055041;28;20221;-90
2021/05/27 13:12:55;;;;;;;2.20;0.90;;;16.00;40.90;;;;;;5052909;28;20327;-90
2021/05/27 13:15:22;;;;;;;0.93;0.90;;;16.20;41.90;;;;;;5048064;28;20198;-90
2021/05/27 13:18:03;;;;;;;1.27;1.02;;;16.40;38.10;;;;;;5043573;28;20237;-90
2021/05/27 13:20:30;;;;;;;2.05;1.25;;;16.40;40.80;;;;;;5055847;28;20610;-90
2021/05/27 13:22:57;;;;;;;3.15;1.30;;;16.40;38.40;;;;;;5046987;28;20236;-90
2021/05/27 13:25:29;;;;;;;1.17;0.98;;;16.40;39.50;;;;;;5043584;28;20199;-90
2021/05/27 13:27:58;;;;;;;1.42;1.00;;;16.60;40.20;;;;;;5058661;28;20228;-90
2021/05/27 13:30:29;;;;;;;3.15;1.10;;;16.70;40.60;;;;;;5047273;28;20202;-90
2021/05/27 13:33:04;;;;;;;1.80;1.60;;;16.50;37.90;;;;;;5046736;28;20249;-91
2021/05/27 13:35:32;;;;;;;2.45;0.90;;;16.10;40.20;;;;;;5057537;28;20206;-90
2021/05/27 13:38:01;;;;;;;1.90;1.15;;;16.20;40.90;;;;;;5046371;28;20700;-90
2021/05/27 13:40:30;;;;;;;3.25;1.30;;;16.40;40.80;;;;;;5056001;28;20267;-90
2021/05/27 13:42:57;;;;;;;2.75;1.30;;;16.30;41.40;;;;;;5051001;28;20301;-90
2021/05/27 13:45:27;;;;;;;1.02;0.82;;;16.20;38.70;;;;;;5042482;28;20244;-90
2021/05/27 13:47:54;;;;;;;4.15;1.00;;;16.20;36.80;;;;;;5046973;28;20239;-91
2021/05/27 13:50:24;;;;;;;1.13;1.00;;;16.10;39.70;;;;;;5043791;28;20265;-90
2021/05/27 13:52:51;;;;;;;2.13;1.10;;;16.30;37.00;;;;;;5055147;28;20646;-90
2021/05/27 13:55:19;;;;;;;1.13;0.93;;;16.30;39.00;;;;;;5055075;28;20684;-90
2021/05/27 13:57:45;;;;;;;2.42;1.00;;;16.40;38.20;;;;;;5046512;28;20225;-91
2021/05/27 14:00:59;;;;;;;2.42;1.27;;;16.40;36.60;;;;;;5161347;27;21136;-90
2021/05/27 14:03:26;;;;;;;1.65;1.20;;;16.40;39.30;;;;;;5122730;27;20265;-92
2021/05/27 14:05:54;;;;;;;1.65;1.10;;;16.50;39.70;;;;;;5108331;28;20300;-91
2021/05/27 14:08:20;;;;;;;1.42;1.20;;;16.30;38.60;;;;;;5096083;28;20211;-92
2021/05/27 14:10:46;;;;;;;1.30;1.20;;;16.40;36.60;;;;;;5110473;28;20199;-91
2021/05/27 14:13:13;;;;;;;1.88;1.02;;;16.70;37.00;;;;;;5110381;28;20236;-92
2021/05/27 14:15:40;;;;;;;1.20;1.10;;;16.50;38.70;;;;;;5109939;28;20783;-91
2021/05/27 14:18:07;;;;;;;2.88;1.35;;;16.40;39.00;;;;;;5109947;28;20231;-91
2021/05/27 14:20:34;;;;;;;2.03;1.45;;;16.30;37.70;;;;;;5105094;28;20305;-91
2021/05/27 14:23:00;;;;;;;1.05;1.00;;;15.90;39.20;;;;;;5108616;28;20829;-92
2021/05/27 14:25:27;;;;;;;2.42;1.23;;;16.10;39.70;;;;;;5109439;28;20200;-91
2021/05/27 14:27:53;;;;;;;2.85;1.10;;;16.30;40.00;;;;;;5110459;28;20289;-90
2021/05/27 14:30:20;;;;;;;1.92;1.10;;;16.60;38.30;;;;;;5111265;28;20298;-91
2021/05/27 14:32:47;;;;;;;2.30;1.38;;;16.80;37.10;;;;;;5116841;27;20705;-91
2021/05/27 14:35:14;;;;;;;2.42;1.05;;;16.60;36.40;;;;;;5131001;28;20205;-91
2021/05/27 14:37:41;;;;;;;2.83;1.33;;;16.30;39.40;;;;;;5130267;27;20283;-90
2021/05/27 14:40:08;;;;;;;1.00;1.00;;;16.40;39.30;;;;;;5118175;28;20288;-91
2021/05/27 14:42:36;;;;;;;1.33;1.23;;;16.30;39.30;;;;;;5124742;27;20231;-91
2021/05/27 14:45:02;;;;;;;1.80;1.23;;;16.30;39.00;;;;;;5110230;28;20192;-91
2021/05/27 14:47:29;;;;;;;1.67;1.15;;;16.20;40.00;;;;;;5095362;28;20230;-91
2021/05/27 14:49:55;;;;;;;0.95;0.95;;;16.20;39.00;;;;;;5108807;28;20261;-90
2021/05/27 14:52:22;;;;;;;3.47;1.27;;;15.90;39.50;;;;;;5110711;27;20306;-91
2021/05/27 14:54:48;;;;;;;5.22;1.40;;;16.00;41.30;;;;;;5128850;28;20230;-93
2021/05/27 14:57:15;;;;;;;1.35;1.23;;;16.00;39.90;;;;;;5128681;27;20191;-91
2021/05/27 14:59:41;;;;;;;1.55;1.10;;;16.10;39.60;;;;;;5118387;28;20233;-91
2021/05/27 15:02:08;;;;;;;3.10;1.52;;;15.90;39.60;;;;;;5127124;27;20202;-91
2021/05/27 15:04:34;;;;;;;2.13;1.23;;;15.80;41.60;;;;;;5108217;28;20376;-92
2021/05/27 15:07:02;;;;;;;1.27;1.10;;;15.90;39.30;;;;;;5108328;27;20239;-91
2021/05/27 15:09:30;;;;;;;1.20;1.10;;;15.90;40.10;;;;;;5104973;28;20214;-91
2021/05/27 15:11:56;;;;;;;1.30;1.10;;;16.10;38.40;;;;;;5089697;28;20197;-91
2021/05/27 15:14:23;;;;;;;3.25;1.88;;;15.90;39.60;;;;;;5094430;27;20360;-91
2021/05/27 15:16:49;;;;;;;3.13;2.55;;;16.00;40.00;;;;;;5081971;28;20279;-91
2021/05/27 15:19:16;;;;;;;1.88;1.67;;;16.10;42.90;;;;;;5086035;28;20224;-90
2021/05/27 15:21:42;;;;;;;1.73;1.23;;;16.40;41.50;;;;;;5095406;28;20212;-91
2021/05/27 15:24:10;;;;;;;7.28;2.40;;;16.40;37.70;;;;;;5095049;28;20220;-92
2021/05/27 15:26:37;;;;;;;1.88;1.40;;;16.30;40.80;;;;;;5084442;28;20284;-90
2021/05/27 15:29:16;;;;;;;2.25;1.20;;;16.10;40.90;;;;;;5091044;28;20243;-90
2021/05/27 15:31:42;;;;;;;1.30;1.00;;;15.90;39.40;;;;;;5095452;28;20283;-90
2021/05/27 15:34:08;;;;;;;1.58;1.25;;;15.90;40.00;;;;;;5094290;28;20231;-90
2021/05/27 15:36:37;;;;;;;4.40;1.30;;;15.80;41.40;;;;;;5095002;28;20200;-90
2021/05/27 15:39:04;;;;;;;1.63;1.20;;;15.80;42.50;;;;;;5088058;28;20224;-90
2021/05/27 15:41:31;;;;;;;3.70;1.30;;;15.70;43.00;;;;;;5083209;28;20193;-91
2021/05/27 15:43:58;;;;;;;2.08;1.38;;;15.50;42.30;;;;;;5095090;28;20223;-90
2021/05/27 15:46:25;;;;;;;6.55;1.40;;;15.30;42.00;;;;;;5101177;28;20220;-90
2021/05/27 15:48:52;;;;;;;3.35;1.40;;;15.10;43.00;;;;;;5114426;27;20228;-90
2021/05/27 15:51:18;;;;;;;5.93;1.30;;;14.90;43.30;;;;;;5122094;28;20294;-89
2021/05/27 15:53:45;;;;;;;8.48;2.03;;;14.80;45.00;;;;;;5125557;28;20312;-90
2021/05/27 15:56:11;;;;;;;2.67;1.23;;;14.70;45.70;;;;;;5128621;28;20204;-90
2021/05/27 15:58:39;;;;;;;7.03;3.28;;;14.60;46.90;;;;;;5127877;28;20226;-90
2021/05/27 16:01:10;;;;;;;1.25;1.15;;;14.50;46.50;;;;;;5130538;28;20217;-90
2021/05/27 16:03:37;;;;;;;3.53;1.30;;;14.40;46.80;;;;;;5129933;28;20284;-90
2021/05/27 16:06:03;;;;;;;1.25;1.15;;;14.30;48.10;;;;;;5134414;28;20215;-90
2021/05/27 16:08:31;;;;;;;5.40;3.75;;;14.20;49.30;;;;;;5130739;28;20243;-90
2021/05/27 16:10:59;;;;;;;1.65;1.20;;;14.20;49.10;;;;;;5114515;28;20230;-89
2021/05/27 16:17:29;;;;;;;8.52;6.43;;;14.20;47.50;;;;;;5108078;28;20184;-90
2021/05/27 16:19:57;;;;;;;1.77;1.27;;;14.20;48.40;;;;;;5112280;28;20219;-90
2021/05/27 16:29:00;;;;;;;2.45;1.40;;;14.20;49.50;;;;;;5078932;28;20193;-92
2021/05/27 16:31:58;;;;;;;2.88;1.40;;;14.30;50.70;;;;;;5072073;28;20177;-92
2021/05/27 16:34:31;;;;;;;1.88;1.25;;;14.50;50.90;;;;;;5085338;28;20200;-90
2021/05/27 16:39:42;;;;;;;3.40;1.20;;;15.10;50.00;;;;;;5136813;27;20222;-90
2021/05/27 16:42:08;;;;;;;4.15;1.65;;;15.10;50.30;;;;;;5132766;27;20210;-89
2021/05/27 16:44:35;;;;;;;4.43;1.58;;;15.00;50.00;;;;;;5139773;27;20295;-89
2021/05/27 16:47:01;;;;;;;2.10;1.17;;;14.90;50.20;;;;;;5102020;27;20244;-90
2021/05/27 16:49:29;;;;;;;3.33;2.92;;;14.70;51.10;;;;;;5126881;27;20204;-90
2021/05/27 16:51:55;;;;;;;3.08;1.60;;;14.60;51.00;;;;;;5127960;28;20561;-90
2021/05/27 16:54:22;;;;;;;1.83;1.63;;;14.50;50.90;;;;;;5127999;28;20287;-90
2021/05/27 16:56:48;;;;;;;2.47;1.38;;;14.50;52.70;;;;;;5129281;28;20206;-91
2021/05/27 16:59:20;;;;;;;2.83;1.30;;;14.40;52.50;;;;;;5110963;28;20227;-89
2021/05/27 17:01:47;;;;;;;3.13;1.50;;;14.50;52.40;;;;;;5112236;28;20212;-89
2021/05/27 17:04:14;;;;;;;2.22;1.40;;;14.50;50.90;;;;;;5113346;28;20215;-89
2021/05/27 17:06:42;;;;;;;1.75;1.30;;;14.50;51.00;;;;;;5114145;28;20197;-90
2021/05/27 17:09:10;;;;;;;6.80;1.58;;;14.50;50.90;;;;;;5118325;28;20231;-89
2021/05/27 17:11:57;;;;;;;2.08;1.50;;;14.40;50.80;;;;;;5113038;28;20203;-90
2021/05/27 17:14:23;;;;;;;7.97;4.38;;;14.40;50.80;;;;;;5111653;28;20665;-90
2021/05/27 17:16:50;;;;;;;6.50;1.92;;;14.50;52.00;;;;;;5130750;27;20200;-90
2021/05/27 17:19:16;;;;;;;3.03;1.50;;;14.40;54.20;;;;;;5149984;27;20235;-90
2021/05/27 17:21:44;;;;;;;2.03;1.50;;;14.30;51.90;;;;;;5151751;27;20199;-90
2021/05/27 17:24:10;;;;;;;1.50;1.40;;;14.20;53.60;;;;;;5138289;27;20228;-91
2021/05/27 17:26:37;;;;;;;5.93;1.67;;;14.10;54.30;;;;;;5110520;28;20203;-90
2021/05/27 17:29:09;;;;;;;1.88;1.50;;;14.00;55.50;;;;;;5110182;28;20320;-90
2021/05/27 17:52:07;;;;;;;3.25;1.40;;;13.80;57.60;;;;;;5132318;28;20175;-90
2021/05/27 18:48:55;;;;;;;4.65;1.95;;;12.60;75.60;;;;;;5069577;28;20229;-88
2021/05/27 18:51:21;;;;;;;1.98;1.65;;;12.50;76.60;;;;;;5064034;28;20206;-89
2021/05/27 18:53:48;;;;;;;1.50;1.40;;;12.40;78.20;;;;;;5071741;28;20696;-88
2021/05/27 18:56:15;;;;;;;1.55;1.40;;;12.40;79.50;;;;;;5051306;28;20202;-89
2021/05/27 18:58:41;;;;;;;1.80;1.58;;;12.30;82.10;;;;;;5055043;28;20295;-89
2021/05/27 19:01:07;;;;;;;3.03;1.73;;;12.30;85.20;;;;;;5058837;28;20194;-89
2021/05/27 19:03:34;;;;;;;2.67;1.42;;;12.20;87.60;;;;;;5051419;28;20246;-89
2021/05/27 19:09:28;;;;;;;2.63;1.63;;;12.10;88.20;;;;;;5062491;28;20213;-89
2021/05/27 19:12:13;;;;;;;1.70;1.60;;;12.00;89.20;;;;;;5055231;28;20210;-88
2021/05/27 19:14:40;;;;;;;2.40;1.63;;;11.90;89.70;;;;;;5051596;28;20215;-89
2021/05/27 19:17:07;;;;;;;4.50;2.03;;;12.00;90.10;;;;;;5050121;28;20241;-89
2021/05/27 19:19:33;;;;;;;4.38;1.80;;;11.90;90.10;;;;;;5051920;28;20230;-89
2021/05/27 19:22:02;;;;;;;2.15;1.95;;;12.00;90.20;;;;;;5052212;28;20186;-89
2021/05/27 19:24:32;;;;;;;3.08;2.47;;;12.00;90.20;;;;;;5059741;28;20219;-88
2021/05/27 19:44:18;;;;;;;1.90;1.70;;;11.20;91.90;;;;;;5053313;28;20741;-88
2021/05/27 19:46:59;;;;;;;2.45;1.40;;;11.10;92.60;;;;;;5050281;28;20190;-89
2021/05/27 19:49:25;;;;;;;1.50;1.40;;;11.00;92.80;;;;;;5050595;28;20234;-88
2021/05/27 19:51:52;;;;;;;1.60;1.30;;;10.90;93.50;;;;;;5051352;28;20646;-89
